Angkor International Airport
VDSR : now visible

Airfield :











YOU CAN JOIN US ON...

 
LOGIN :

Register | Disclaimer

   EN    FR    IT 

 









Legend :    VFR   Marginal VFR   IFR   Intensive IFR   Very Intensive IFR
Visi :
Ceiling :
>= 8 km
>= 3000ft
5 to 8 km
1000 to 3000 ft
1500m to 5 km
500 to 1000 ft
800 to 1500m
200 to 500 ft
< 800m
< 200 ft
Symbols :   Thunderstorms  Fog  Heavy snow  Heavy precipitations  Wind > 20 kt






- Airport Elevation : 60 ft
- IATA code : REP


VDSR - Angkor International

CURRENT METAR :
  • 150400Z 08006KT 050V110 9999 SCT015 31/22 Q1011

EXPIRED METARs :
  • 150330Z 10005KT 070V130 9999 SCT015 31/22 Q1012
  • 150300Z 08004KT 040V110 9999 SCT015 30/23 Q1012
  • 150230Z 10005KT 070V130 9999 SCT015 30/22 Q1012
  • 150200Z 07004KT 050V120 9999 SCT015 29/24 Q1012
  • 150130Z VRB03KT 9999 FEW015 29/24 Q1012

TAF TAF VDSR
Valid from the 15 at 00:00 until the 15 at 18:00 UTC


142300Z 1500/1518 02007KT 9999 SCT017 SCT040
TEMPO 1506/1511 SCT015 FEW017CB



MET'MAP, your aeronautical weather chart ! - Copyright ORBIFLY December 2007 - Disclaimer

ORBIFLY MET'MAP TEAM :

Programming & Development : Alexandra Zaïnal
Concept & Development : Baudouin d'Aumeries
Co-Development & Prog : Marc-Olivier Méhu
Technical & hardware support : Manuel Goepfert

Contact : metmap@orbifly.com




SOURCES & CREDITS :

   NOAA       Earth
Advisory